sensor_id;sensor_type;location;lat;lon;timestamp;P1;durP1;ratioP1;P2;durP2;ratioP2
24161;SDS011;12318;51.262;7.066;2023-01-28T00:00:05;13.88;;;8.52;;
24161;SDS011;12318;51.262;7.066;2023-01-28T00:02:36;11.52;;;8.55;;
24161;SDS011;12318;51.262;7.066;2023-01-28T00:05:02;13.60;;;9.02;;
24161;SDS011;12318;51.262;7.066;2023-01-28T00:07:28;12.40;;;8.90;;
24161;SDS011;12318;51.262;7.066;2023-01-28T00:09:54;13.90;;;9.13;;
24161;SDS011;12318;51.262;7.066;2023-01-28T00:12:20;16.58;;;9.20;;
24161;SDS011;12318;51.262;7.066;2023-01-28T00:14:46;9.45;;;8.30;;
24161;SDS011;12318;51.262;7.066;2023-01-28T00:17:12;12.95;;;9.40;;
24161;SDS011;12318;51.262;7.066;2023-01-28T00:19:39;10.52;;;8.27;;
24161;SDS011;12318;51.262;7.066;2023-01-28T00:22:05;14.00;;;9.00;;
24161;SDS011;12318;51.262;7.066;2023-01-28T00:24:31;11.52;;;8.82;;
24161;SDS011;12318;51.262;7.066;2023-01-28T00:26:57;11.15;;;9.18;;
24161;SDS011;12318;51.262;7.066;2023-01-28T00:29:22;16.08;;;9.52;;
24161;SDS011;12318;51.262;7.066;2023-01-28T00:31:50;14.20;;;9.57;;
24161;SDS011;12318;51.262;7.066;2023-01-28T00:34:16;13.68;;;8.90;;
24161;SDS011;12318;51.262;7.066;2023-01-28T00:36:42;11.30;;;8.40;;
24161;SDS011;12318;51.262;7.066;2023-01-28T00:39:10;13.23;;;8.77;;
24161;SDS011;12318;51.262;7.066;2023-01-28T00:41:38;11.48;;;9.30;;
24161;SDS011;12318;51.262;7.066;2023-01-28T00:44:04;11.88;;;8.77;;
24161;SDS011;12318;51.262;7.066;2023-01-28T00:46:30;10.82;;;8.25;;
24161;SDS011;12318;51.262;7.066;2023-01-28T00:48:55;10.80;;;8.02;;
24161;SDS011;12318;51.262;7.066;2023-01-28T00:51:21;13.32;;;8.32;;
24161;SDS011;12318;51.262;7.066;2023-01-28T00:53:47;12.00;;;7.70;;
24161;SDS011;12318;51.262;7.066;2023-01-28T00:56:14;10.82;;;7.82;;
24161;SDS011;12318;51.262;7.066;2023-01-28T00:58:42;10.63;;;8.02;;
24161;SDS011;12318;51.262;7.066;2023-01-28T01:03:48;11.20;;;7.80;;
24161;SDS011;12318;51.262;7.066;2023-01-28T01:06:27;12.38;;;8.35;;
24161;SDS011;12318;51.262;7.066;2023-01-28T01:08:54;11.25;;;7.82;;
24161;SDS011;12318;51.262;7.066;2023-01-28T01:11:20;11.88;;;8.20;;
24161;SDS011;12318;51.262;7.066;2023-01-28T01:13:50;10.15;;;7.88;;
24161;SDS011;12318;51.262;7.066;2023-01-28T01:16:21;10.63;;;7.22;;
24161;SDS011;12318;51.262;7.066;2023-01-28T01:18:49;9.18;;;7.80;;
24161;SDS011;12318;51.262;7.066;2023-01-28T01:21:17;8.63;;;7.20;;
24161;SDS011;12318;51.262;7.066;2023-01-28T01:23:44;8.85;;;7.85;;
24161;SDS011;12318;51.262;7.066;2023-01-28T01:26:11;10.38;;;7.55;;
24161;SDS011;12318;51.262;7.066;2023-01-28T01:28:37;9.73;;;7.60;;
24161;SDS011;12318;51.262;7.066;2023-01-28T01:31:04;10.48;;;7.80;;
24161;SDS011;12318;51.262;7.066;2023-01-28T01:33:32;11.50;;;8.52;;
24161;SDS011;12318;51.262;7.066;2023-01-28T01:35:59;11.15;;;7.88;;
24161;SDS011;12318;51.262;7.066;2023-01-28T01:38:25;11.52;;;7.95;;
24161;SDS011;12318;51.262;7.066;2023-01-28T01:40:51;8.55;;;7.15;;
24161;SDS011;12318;51.262;7.066;2023-01-28T01:43:24;10.00;;;7.70;;
24161;SDS011;12318;51.262;7.066;2023-01-28T01:46:11;10.05;;;7.80;;
24161;SDS011;12318;51.262;7.066;2023-01-28T01:48:43;10.88;;;8.43;;
24161;SDS011;12318;51.262;7.066;2023-01-28T01:51:10;9.15;;;8.18;;
24161;SDS011;12318;51.262;7.066;2023-01-28T01:53:44;9.52;;;7.30;;
24161;SDS011;12318;51.262;7.066;2023-01-28T01:56:16;11.25;;;8.00;;
24161;SDS011;12318;51.262;7.066;2023-01-28T01:58:45;11.68;;;8.43;;
24161;SDS011;12318;51.262;7.066;2023-01-28T02:01:19;9.85;;;7.82;;
24161;SDS011;12318;51.262;7.066;2023-01-28T02:03:56;12.20;;;8.35;;
24161;SDS011;12318;51.262;7.066;2023-01-28T02:06:30;10.50;;;8.80;;
24161;SDS011;12318;51.262;7.066;2023-01-28T02:09:53;9.13;;;8.10;;
24161;SDS011;12318;51.262;7.066;2023-01-28T02:12:32;14.50;;;7.85;;
24161;SDS011;12318;51.262;7.066;2023-01-28T02:17:54;9.15;;;7.80;;
24161;SDS011;12318;51.262;7.066;2023-01-28T02:20:22;9.27;;;8.15;;
24161;SDS011;12318;51.262;7.066;2023-01-28T02:26:29;10.20;;;7.70;;
24161;SDS011;12318;51.262;7.066;2023-01-28T02:29:36;10.38;;;7.68;;
24161;SDS011;12318;51.262;7.066;2023-01-28T02:32:09;8.82;;;7.88;;
24161;SDS011;12318;51.262;7.066;2023-01-28T02:37:40;11.20;;;8.38;;
24161;SDS011;12318;51.262;7.066;2023-01-28T02:40:24;12.18;;;8.40;;
24161;SDS011;12318;51.262;7.066;2023-01-28T02:43:36;10.18;;;8.50;;
24161;SDS011;12318;51.262;7.066;2023-01-28T02:57:29;13.57;;;10.23;;
24161;SDS011;12318;51.262;7.066;2023-01-28T03:00:15;11.60;;;10.40;;
24161;SDS011;12318;51.262;7.066;2023-01-28T03:05:30;13.23;;;11.73;;
24161;SDS011;12318;51.262;7.066;2023-01-28T03:11:27;15.77;;;12.30;;
24161;SDS011;12318;51.262;7.066;2023-01-28T03:14:16;13.30;;;11.90;;
24161;SDS011;12318;51.262;7.066;2023-01-28T03:17:02;16.80;;;12.18;;
24161;SDS011;12318;51.262;7.066;2023-01-28T03:19:51;14.45;;;12.43;;
24161;SDS011;12318;51.262;7.066;2023-01-28T03:22:39;15.52;;;12.70;;
24161;SDS011;12318;51.262;7.066;2023-01-28T03:25:28;16.10;;;13.95;;
24161;SDS011;12318;51.262;7.066;2023-01-28T03:28:14;17.27;;;13.02;;
24161;SDS011;12318;51.262;7.066;2023-01-28T03:31:09;14.68;;;11.43;;
24161;SDS011;12318;51.262;7.066;2023-01-28T03:33:59;17.48;;;12.25;;
24161;SDS011;12318;51.262;7.066;2023-01-28T03:36:47;13.52;;;11.32;;
24161;SDS011;12318;51.262;7.066;2023-01-28T03:39:36;17.70;;;12.85;;
24161;SDS011;12318;51.262;7.066;2023-01-28T03:44:30;16.95;;;14.70;;
24161;SDS011;12318;51.262;7.066;2023-01-28T03:47:15;18.02;;;15.68;;
24161;SDS011;12318;51.262;7.066;2023-01-28T03:49:41;19.95;;;16.13;;
24161;SDS011;12318;51.262;7.066;2023-01-28T03:52:21;22.27;;;16.30;;
24161;SDS011;12318;51.262;7.066;2023-01-28T03:54:57;19.15;;;16.13;;
24161;SDS011;12318;51.262;7.066;2023-01-28T03:57:24;17.45;;;15.55;;
24161;SDS011;12318;51.262;7.066;2023-01-28T03:59:50;18.73;;;16.17;;
24161;SDS011;12318;51.262;7.066;2023-01-28T04:02:17;22.13;;;15.32;;
24161;SDS011;12318;51.262;7.066;2023-01-28T04:04:47;23.08;;;17.35;;
24161;SDS011;12318;51.262;7.066;2023-01-28T04:07:14;19.65;;;16.23;;
24161;SDS011;12318;51.262;7.066;2023-01-28T04:09:40;24.08;;;16.38;;
24161;SDS011;12318;51.262;7.066;2023-01-28T04:12:07;20.80;;;16.90;;
24161;SDS011;12318;51.262;7.066;2023-01-28T04:14:35;24.20;;;17.63;;
24161;SDS011;12318;51.262;7.066;2023-01-28T04:17:03;22.48;;;17.27;;
24161;SDS011;12318;51.262;7.066;2023-01-28T04:19:34;23.90;;;19.70;;
24161;SDS011;12318;51.262;7.066;2023-01-28T04:22:09;26.02;;;19.85;;
24161;SDS011;12318;51.262;7.066;2023-01-28T04:24:36;26.10;;;20.20;;
24161;SDS011;12318;51.262;7.066;2023-01-28T04:27:04;24.13;;;19.27;;
24161;SDS011;12318;51.262;7.066;2023-01-28T04:29:33;24.80;;;19.88;;
24161;SDS011;12318;51.262;7.066;2023-01-28T04:31:59;24.67;;;19.08;;
24161;SDS011;12318;51.262;7.066;2023-01-28T04:34:26;28.08;;;20.05;;
24161;SDS011;12318;51.262;7.066;2023-01-28T04:36:51;25.38;;;19.25;;
24161;SDS011;12318;51.262;7.066;2023-01-28T04:39:17;22.67;;;18.65;;
24161;SDS011;12318;51.262;7.066;2023-01-28T04:41:43;22.85;;;18.08;;
24161;SDS011;12318;51.262;7.066;2023-01-28T04:44:08;23.35;;;18.00;;
24161;SDS011;12318;51.262;7.066;2023-01-28T04:46:34;22.75;;;17.13;;
24161;SDS011;12318;51.262;7.066;2023-01-28T04:49:03;22.95;;;17.65;;
24161;SDS011;12318;51.262;7.066;2023-01-28T04:51:29;25.75;;;18.55;;
24161;SDS011;12318;51.262;7.066;2023-01-28T04:53:54;23.90;;;17.50;;
24161;SDS011;12318;51.262;7.066;2023-01-28T04:56:20;22.90;;;17.90;;
24161;SDS011;12318;51.262;7.066;2023-01-28T04:58:46;21.30;;;17.35;;
24161;SDS011;12318;51.262;7.066;2023-01-28T05:01:15;24.15;;;17.80;;
24161;SDS011;12318;51.262;7.066;2023-01-28T05:03:40;24.83;;;17.98;;
24161;SDS011;12318;51.262;7.066;2023-01-28T05:06:09;25.23;;;18.02;;
24161;SDS011;12318;51.262;7.066;2023-01-28T05:08:35;26.95;;;19.30;;
24161;SDS011;12318;51.262;7.066;2023-01-28T05:11:03;24.98;;;18.25;;
24161;SDS011;12318;51.262;7.066;2023-01-28T05:13:29;25.58;;;19.15;;
24161;SDS011;12318;51.262;7.066;2023-01-28T05:15:58;23.45;;;18.42;;
24161;SDS011;12318;51.262;7.066;2023-01-28T05:18:23;27.55;;;19.45;;
24161;SDS011;12318;51.262;7.066;2023-01-28T05:20:49;23.98;;;19.17;;
24161;SDS011;12318;51.262;7.066;2023-01-28T05:23:21;27.52;;;20.45;;
24161;SDS011;12318;51.262;7.066;2023-01-28T05:25:47;28.50;;;21.77;;
24161;SDS011;12318;51.262;7.066;2023-01-28T05:28:12;26.70;;;20.73;;
24161;SDS011;12318;51.262;7.066;2023-01-28T05:30:38;32.22;;;23.60;;
24161;SDS011;12318;51.262;7.066;2023-01-28T05:33:04;30.58;;;23.58;;
24161;SDS011;12318;51.262;7.066;2023-01-28T05:35:30;30.63;;;22.35;;
24161;SDS011;12318;51.262;7.066;2023-01-28T05:37:58;31.73;;;23.80;;
24161;SDS011;12318;51.262;7.066;2023-01-28T05:40:25;32.55;;;23.83;;
24161;SDS011;12318;51.262;7.066;2023-01-28T05:42:51;30.75;;;22.50;;
24161;SDS011;12318;51.262;7.066;2023-01-28T05:45:16;28.33;;;21.50;;
24161;SDS011;12318;51.262;7.066;2023-01-28T05:47:45;30.33;;;23.27;;
24161;SDS011;12318;51.262;7.066;2023-01-28T05:50:11;29.10;;;22.60;;
24161;SDS011;12318;51.262;7.066;2023-01-28T05:52:41;31.23;;;21.20;;
24161;SDS011;12318;51.262;7.066;2023-01-28T05:55:07;30.90;;;21.52;;
24161;SDS011;12318;51.262;7.066;2023-01-28T05:57:33;29.73;;;21.05;;
24161;SDS011;12318;51.262;7.066;2023-01-28T05:59:59;23.55;;;17.65;;
24161;SDS011;12318;51.262;7.066;2023-01-28T06:02:26;27.60;;;18.25;;
24161;SDS011;12318;51.262;7.066;2023-01-28T06:05:01;21.88;;;17.02;;
24161;SDS011;12318;51.262;7.066;2023-01-28T06:07:27;26.95;;;19.33;;
24161;SDS011;12318;51.262;7.066;2023-01-28T06:09:53;28.35;;;21.80;;
24161;SDS011;12318;51.262;7.066;2023-01-28T06:12:22;26.13;;;20.30;;
24161;SDS011;12318;51.262;7.066;2023-01-28T06:14:47;28.55;;;20.38;;
24161;SDS011;12318;51.262;7.066;2023-01-28T06:17:13;28.45;;;19.30;;
24161;SDS011;12318;51.262;7.066;2023-01-28T06:19:39;27.27;;;18.45;;
24161;SDS011;12318;51.262;7.066;2023-01-28T06:22:06;26.88;;;19.48;;
24161;SDS011;12318;51.262;7.066;2023-01-28T06:24:32;25.85;;;19.73;;
24161;SDS011;12318;51.262;7.066;2023-01-28T06:26:58;25.27;;;20.23;;
24161;SDS011;12318;51.262;7.066;2023-01-28T06:29:23;28.25;;;22.65;;
24161;SDS011;12318;51.262;7.066;2023-01-28T06:31:50;33.30;;;22.75;;
24161;SDS011;12318;51.262;7.066;2023-01-28T06:34:16;32.13;;;22.88;;
24161;SDS011;12318;51.262;7.066;2023-01-28T06:36:42;33.80;;;23.17;;
24161;SDS011;12318;51.262;7.066;2023-01-28T06:39:08;32.38;;;23.50;;
24161;SDS011;12318;51.262;7.066;2023-01-28T06:41:34;31.65;;;22.58;;
24161;SDS011;12318;51.262;7.066;2023-01-28T06:43:59;31.50;;;24.77;;
24161;SDS011;12318;51.262;7.066;2023-01-28T06:46:26;31.73;;;22.67;;
24161;SDS011;12318;51.262;7.066;2023-01-28T06:48:52;29.13;;;22.70;;
24161;SDS011;12318;51.262;7.066;2023-01-28T06:51:17;29.27;;;22.40;;
24161;SDS011;12318;51.262;7.066;2023-01-28T06:53:43;29.83;;;22.38;;
24161;SDS011;12318;51.262;7.066;2023-01-28T06:56:10;28.48;;;21.90;;
24161;SDS011;12318;51.262;7.066;2023-01-28T06:58:35;27.13;;;22.17;;
24161;SDS011;12318;51.262;7.066;2023-01-28T07:01:01;29.33;;;21.35;;
24161;SDS011;12318;51.262;7.066;2023-01-28T07:03:28;28.38;;;21.25;;
24161;SDS011;12318;51.262;7.066;2023-01-28T07:05:53;27.45;;;20.67;;
24161;SDS011;12318;51.262;7.066;2023-01-28T07:08:19;28.63;;;21.33;;
24161;SDS011;12318;51.262;7.066;2023-01-28T07:10:45;27.70;;;21.13;;
24161;SDS011;12318;51.262;7.066;2023-01-28T07:13:11;29.02;;;20.95;;
24161;SDS011;12318;51.262;7.066;2023-01-28T07:15:37;31.77;;;23.25;;
24161;SDS011;12318;51.262;7.066;2023-01-28T07:18:02;29.77;;;22.33;;
24161;SDS011;12318;51.262;7.066;2023-01-28T07:20:28;31.33;;;24.35;;
24161;SDS011;12318;51.262;7.066;2023-01-28T07:22:54;35.38;;;24.17;;
24161;SDS011;12318;51.262;7.066;2023-01-28T07:25:20;32.85;;;24.08;;
24161;SDS011;12318;51.262;7.066;2023-01-28T07:27:49;34.72;;;25.60;;
24161;SDS011;12318;51.262;7.066;2023-01-28T07:30:17;32.38;;;25.40;;
24161;SDS011;12318;51.262;7.066;2023-01-28T07:32:44;34.50;;;25.38;;
24161;SDS011;12318;51.262;7.066;2023-01-28T07:35:11;28.65;;;21.50;;
24161;SDS011;12318;51.262;7.066;2023-01-28T07:37:38;30.17;;;21.40;;
24161;SDS011;12318;51.262;7.066;2023-01-28T07:40:03;27.65;;;21.08;;
24161;SDS011;12318;51.262;7.066;2023-01-28T07:42:30;25.05;;;19.80;;
24161;SDS011;12318;51.262;7.066;2023-01-28T07:44:55;25.52;;;20.30;;
24161;SDS011;12318;51.262;7.066;2023-01-28T07:47:21;31.13;;;24.23;;
24161;SDS011;12318;51.262;7.066;2023-01-28T07:49:47;25.90;;;20.80;;
24161;SDS011;12318;51.262;7.066;2023-01-28T07:52:13;30.23;;;20.45;;
24161;SDS011;12318;51.262;7.066;2023-01-28T07:54:39;32.13;;;22.42;;
24161;SDS011;12318;51.262;7.066;2023-01-28T07:57:08;32.42;;;22.65;;
24161;SDS011;12318;51.262;7.066;2023-01-28T07:59:34;27.08;;;20.55;;
24161;SDS011;12318;51.262;7.066;2023-01-28T08:02:02;32.25;;;23.73;;
24161;SDS011;12318;51.262;7.066;2023-01-28T08:04:28;32.58;;;21.75;;
24161;SDS011;12318;51.262;7.066;2023-01-28T08:06:53;30.63;;;22.92;;
24161;SDS011;12318;51.262;7.066;2023-01-28T08:09:21;28.70;;;22.58;;
24161;SDS011;12318;51.262;7.066;2023-01-28T08:11:47;28.02;;;22.13;;
24161;SDS011;12318;51.262;7.066;2023-01-28T08:14:12;29.05;;;22.50;;
24161;SDS011;12318;51.262;7.066;2023-01-28T08:16:38;26.70;;;20.45;;
24161;SDS011;12318;51.262;7.066;2023-01-28T08:19:04;24.45;;;19.58;;
24161;SDS011;12318;51.262;7.066;2023-01-28T08:21:29;29.08;;;21.63;;
24161;SDS011;12318;51.262;7.066;2023-01-28T08:23:55;26.15;;;21.77;;
24161;SDS011;12318;51.262;7.066;2023-01-28T08:26:21;29.02;;;22.77;;
24161;SDS011;12318;51.262;7.066;2023-01-28T08:28:47;32.92;;;23.55;;
24161;SDS011;12318;51.262;7.066;2023-01-28T08:31:12;30.45;;;23.08;;
24161;SDS011;12318;51.262;7.066;2023-01-28T08:33:38;32.53;;;24.10;;
24161;SDS011;12318;51.262;7.066;2023-01-28T08:36:04;32.75;;;23.60;;
24161;SDS011;12318;51.262;7.066;2023-01-28T08:38:30;32.30;;;24.27;;
24161;SDS011;12318;51.262;7.066;2023-01-28T08:40:56;29.80;;;23.15;;
24161;SDS011;12318;51.262;7.066;2023-01-28T08:43:23;37.38;;;26.00;;
24161;SDS011;12318;51.262;7.066;2023-01-28T08:45:49;35.03;;;24.67;;
24161;SDS011;12318;51.262;7.066;2023-01-28T08:48:16;28.38;;;22.98;;
24161;SDS011;12318;51.262;7.066;2023-01-28T08:50:43;34.90;;;25.52;;
24161;SDS011;12318;51.262;7.066;2023-01-28T08:53:16;33.95;;;24.48;;
24161;SDS011;12318;51.262;7.066;2023-01-28T08:55:43;34.85;;;25.60;;
24161;SDS011;12318;51.262;7.066;2023-01-28T08:58:14;34.85;;;24.85;;
24161;SDS011;12318;51.262;7.066;2023-01-28T09:00:41;31.17;;;23.53;;
24161;SDS011;12318;51.262;7.066;2023-01-28T09:03:08;33.92;;;25.08;;
24161;SDS011;12318;51.262;7.066;2023-01-28T09:05:34;34.28;;;25.95;;
24161;SDS011;12318;51.262;7.066;2023-01-28T09:08:04;35.20;;;25.52;;
24161;SDS011;12318;51.262;7.066;2023-01-28T09:10:32;33.97;;;24.85;;
24161;SDS011;12318;51.262;7.066;2023-01-28T09:12:58;34.58;;;25.33;;
24161;SDS011;12318;51.262;7.066;2023-01-28T09:15:29;31.00;;;23.98;;
24161;SDS011;12318;51.262;7.066;2023-01-28T09:17:57;31.50;;;23.25;;
24161;SDS011;12318;51.262;7.066;2023-01-28T09:20:23;25.90;;;21.13;;
24161;SDS011;12318;51.262;7.066;2023-01-28T09:22:50;30.20;;;23.45;;
24161;SDS011;12318;51.262;7.066;2023-01-28T09:25:16;31.50;;;23.70;;
24161;SDS011;12318;51.262;7.066;2023-01-28T09:27:41;29.13;;;21.45;;
24161;SDS011;12318;51.262;7.066;2023-01-28T09:30:07;30.88;;;21.48;;
24161;SDS011;12318;51.262;7.066;2023-01-28T09:32:35;26.08;;;19.42;;
24161;SDS011;12318;51.262;7.066;2023-01-28T09:35:01;28.77;;;19.42;;
24161;SDS011;12318;51.262;7.066;2023-01-28T09:37:26;27.02;;;19.10;;
24161;SDS011;12318;51.262;7.066;2023-01-28T09:39:52;25.30;;;18.52;;
24161;SDS011;12318;51.262;7.066;2023-01-28T09:45:17;25.75;;;19.23;;
24161;SDS011;12318;51.262;7.066;2023-01-28T09:47:50;29.40;;;19.23;;
24161;SDS011;12318;51.262;7.066;2023-01-28T09:50:30;24.52;;;18.27;;
24161;SDS011;12318;51.262;7.066;2023-01-28T09:55:45;22.17;;;18.33;;
24161;SDS011;12318;51.262;7.066;2023-01-28T09:58:14;21.55;;;15.40;;
24161;SDS011;12318;51.262;7.066;2023-01-28T10:05:55;24.33;;;17.23;;
24161;SDS011;12318;51.262;7.066;2023-01-28T10:17:31;21.85;;;15.48;;
24161;SDS011;12318;51.262;7.066;2023-01-28T10:20:15;23.70;;;15.80;;
24161;SDS011;12318;51.262;7.066;2023-01-28T10:22:45;18.33;;;13.77;;
24161;SDS011;12318;51.262;7.066;2023-01-28T10:25:25;17.35;;;13.60;;
24161;SDS011;12318;51.262;7.066;2023-01-28T10:27:54;19.40;;;14.48;;
24161;SDS011;12318;51.262;7.066;2023-01-28T10:30:21;18.67;;;15.48;;
24161;SDS011;12318;51.262;7.066;2023-01-28T10:32:52;22.25;;;15.77;;
24161;SDS011;12318;51.262;7.066;2023-01-28T10:35:36;22.80;;;15.48;;
24161;SDS011;12318;51.262;7.066;2023-01-28T10:38:04;20.45;;;15.18;;
24161;SDS011;12318;51.262;7.066;2023-01-28T10:40:33;23.23;;;16.05;;
24161;SDS011;12318;51.262;7.066;2023-01-28T10:42:59;22.83;;;15.88;;
24161;SDS011;12318;51.262;7.066;2023-01-28T10:45:26;23.77;;;15.57;;
24161;SDS011;12318;51.262;7.066;2023-01-28T10:47:53;22.65;;;15.75;;
24161;SDS011;12318;51.262;7.066;2023-01-28T10:50:26;19.52;;;15.68;;
24161;SDS011;12318;51.262;7.066;2023-01-28T10:55:19;20.23;;;16.25;;
24161;SDS011;12318;51.262;7.066;2023-01-28T10:57:45;25.05;;;16.75;;
24161;SDS011;12318;51.262;7.066;2023-01-28T11:00:20;24.77;;;17.20;;
24161;SDS011;12318;51.262;7.066;2023-01-28T11:02:50;23.77;;;17.75;;
24161;SDS011;12318;51.262;7.066;2023-01-28T11:05:16;23.05;;;17.95;;
24161;SDS011;12318;51.262;7.066;2023-01-28T11:07:43;23.90;;;18.48;;
24161;SDS011;12318;51.262;7.066;2023-01-28T11:13:48;25.60;;;18.52;;
24161;SDS011;12318;51.262;7.066;2023-01-28T11:16:15;24.40;;;19.27;;
24161;SDS011;12318;51.262;7.066;2023-01-28T11:18:52;24.67;;;19.65;;
24161;SDS011;12318;51.262;7.066;2023-01-28T11:21:22;24.73;;;18.27;;
24161;SDS011;12318;51.262;7.066;2023-01-28T11:23:52;23.58;;;18.10;;
24161;SDS011;12318;51.262;7.066;2023-01-28T11:26:25;24.67;;;18.83;;
24161;SDS011;12318;51.262;7.066;2023-01-28T11:28:53;23.05;;;17.88;;
24161;SDS011;12318;51.262;7.066;2023-01-28T11:31:20;21.58;;;17.33;;
24161;SDS011;12318;51.262;7.066;2023-01-28T11:33:49;21.83;;;16.98;;
24161;SDS011;12318;51.262;7.066;2023-01-28T11:36:22;21.23;;;16.60;;
24161;SDS011;12318;51.262;7.066;2023-01-28T11:39:00;19.63;;;16.13;;
24161;SDS011;12318;51.262;7.066;2023-01-28T11:41:32;23.75;;;17.88;;
24161;SDS011;12318;51.262;7.066;2023-01-28T11:52:27;17.85;;;14.45;;
24161;SDS011;12318;51.262;7.066;2023-01-28T12:13:37;20.15;;;15.50;;
24161;SDS011;12318;51.262;7.066;2023-01-28T12:16:38;19.00;;;15.68;;
24161;SDS011;12318;51.262;7.066;2023-01-28T12:19:19;19.23;;;15.18;;
24161;SDS011;12318;51.262;7.066;2023-01-28T12:22:11;19.67;;;16.05;;
24161;SDS011;12318;51.262;7.066;2023-01-28T12:24:57;17.98;;;14.50;;
24161;SDS011;12318;51.262;7.066;2023-01-28T12:41:19;18.65;;;14.73;;
24161;SDS011;12318;51.262;7.066;2023-01-28T12:43:55;19.33;;;14.80;;
24161;SDS011;12318;51.262;7.066;2023-01-28T12:49:52;18.67;;;14.07;;
24161;SDS011;12318;51.262;7.066;2023-01-28T12:52:45;15.65;;;13.15;;
24161;SDS011;12318;51.262;7.066;2023-01-28T12:58:04;14.98;;;12.98;;
24161;SDS011;12318;51.262;7.066;2023-01-28T13:00:36;16.40;;;13.85;;
24161;SDS011;12318;51.262;7.066;2023-01-28T13:05:50;20.05;;;14.65;;
24161;SDS011;12318;51.262;7.066;2023-01-28T13:08:22;19.52;;;15.15;;
24161;SDS011;12318;51.262;7.066;2023-01-28T13:10:49;18.83;;;14.57;;
24161;SDS011;12318;51.262;7.066;2023-01-28T13:15:51;19.63;;;15.40;;
24161;SDS011;12318;51.262;7.066;2023-01-28T13:21:03;26.42;;;16.38;;
24161;SDS011;12318;51.262;7.066;2023-01-28T13:25:56;22.80;;;16.45;;
24161;SDS011;12318;51.262;7.066;2023-01-28T13:28:33;23.25;;;16.27;;
24161;SDS011;12318;51.262;7.066;2023-01-28T13:31:06;24.40;;;16.52;;
24161;SDS011;12318;51.262;7.066;2023-01-28T13:33:39;19.77;;;16.00;;
24161;SDS011;12318;51.262;7.066;2023-01-28T13:36:28;23.33;;;16.65;;
24161;SDS011;12318;51.262;7.066;2023-01-28T13:41:39;24.95;;;15.95;;
24161;SDS011;12318;51.262;7.066;2023-01-28T13:44:20;23.17;;;16.52;;
24161;SDS011;12318;51.262;7.066;2023-01-28T13:47:11;25.00;;;17.10;;
24161;SDS011;12318;51.262;7.066;2023-01-28T13:52:36;28.25;;;17.77;;
24161;SDS011;12318;51.262;7.066;2023-01-28T14:02:54;24.08;;;17.85;;
24161;SDS011;12318;51.262;7.066;2023-01-28T14:14:30;28.45;;;18.85;;
24161;SDS011;12318;51.262;7.066;2023-01-28T14:17:12;28.42;;;18.67;;
24161;SDS011;12318;51.262;7.066;2023-01-28T14:19:51;30.15;;;19.40;;
24161;SDS011;12318;51.262;7.066;2023-01-28T14:22:19;31.38;;;20.67;;
24161;SDS011;12318;51.262;7.066;2023-01-28T14:24:45;29.77;;;19.45;;
24161;SDS011;12318;51.262;7.066;2023-01-28T14:32:42;32.67;;;21.58;;
24161;SDS011;12318;51.262;7.066;2023-01-28T14:35:29;28.83;;;19.85;;
24161;SDS011;12318;51.262;7.066;2023-01-28T14:37:57;32.53;;;21.23;;
24161;SDS011;12318;51.262;7.066;2023-01-28T14:40:30;29.02;;;20.88;;
24161;SDS011;12318;51.262;7.066;2023-01-28T14:42:57;27.67;;;19.52;;
24161;SDS011;12318;51.262;7.066;2023-01-28T14:48:28;30.10;;;20.15;;
24161;SDS011;12318;51.262;7.066;2023-01-28T14:56:46;32.97;;;21.92;;
24161;SDS011;12318;51.262;7.066;2023-01-28T15:02:34;23.73;;;15.98;;
24161;SDS011;12318;51.262;7.066;2023-01-28T15:05:07;31.10;;;21.42;;
24161;SDS011;12318;51.262;7.066;2023-01-28T15:07:33;33.33;;;21.83;;
24161;SDS011;12318;51.262;7.066;2023-01-28T15:10:00;34.00;;;22.45;;
24161;SDS011;12318;51.262;7.066;2023-01-28T15:12:35;33.08;;;19.58;;
24161;SDS011;12318;51.262;7.066;2023-01-28T15:15:08;30.27;;;21.70;;
24161;SDS011;12318;51.262;7.066;2023-01-28T15:17:34;33.38;;;22.73;;
24161;SDS011;12318;51.262;7.066;2023-01-28T15:20:00;29.75;;;20.77;;
24161;SDS011;12318;51.262;7.066;2023-01-28T15:22:28;34.42;;;21.95;;
24161;SDS011;12318;51.262;7.066;2023-01-28T15:24:54;32.67;;;20.98;;
24161;SDS011;12318;51.262;7.066;2023-01-28T15:27:25;28.27;;;20.10;;
24161;SDS011;12318;51.262;7.066;2023-01-28T15:29:57;31.02;;;21.60;;
24161;SDS011;12318;51.262;7.066;2023-01-28T15:32:30;40.83;;;22.52;;
24161;SDS011;12318;51.262;7.066;2023-01-28T15:34:57;36.22;;;20.92;;
24161;SDS011;12318;51.262;7.066;2023-01-28T15:37:25;30.63;;;20.83;;
24161;SDS011;12318;51.262;7.066;2023-01-28T15:40:00;32.97;;;21.80;;
24161;SDS011;12318;51.262;7.066;2023-01-28T15:42:30;31.10;;;21.60;;
24161;SDS011;12318;51.262;7.066;2023-01-28T15:44:56;31.63;;;20.33;;
24161;SDS011;12318;51.262;7.066;2023-01-28T15:50:00;29.40;;;20.80;;
24161;SDS011;12318;51.262;7.066;2023-01-28T15:52:31;28.33;;;19.65;;
24161;SDS011;12318;51.262;7.066;2023-01-28T15:54:59;29.02;;;19.02;;
24161;SDS011;12318;51.262;7.066;2023-01-28T15:57:30;29.75;;;20.50;;
24161;SDS011;12318;51.262;7.066;2023-01-28T16:00:14;29.83;;;21.25;;
24161;SDS011;12318;51.262;7.066;2023-01-28T16:02:48;29.42;;;20.65;;
24161;SDS011;12318;51.262;7.066;2023-01-28T16:05:35;30.58;;;20.80;;
24161;SDS011;12318;51.262;7.066;2023-01-28T16:08:10;32.58;;;22.17;;
24161;SDS011;12318;51.262;7.066;2023-01-28T16:10:41;31.48;;;22.05;;
24161;SDS011;12318;51.262;7.066;2023-01-28T16:15:35;33.53;;;24.00;;
24161;SDS011;12318;51.262;7.066;2023-01-28T16:18:03;31.33;;;23.08;;
24161;SDS011;12318;51.262;7.066;2023-01-28T16:20:30;34.53;;;24.27;;
24161;SDS011;12318;51.262;7.066;2023-01-28T16:22:59;33.40;;;24.02;;
24161;SDS011;12318;51.262;7.066;2023-01-28T16:25:30;32.65;;;24.48;;
24161;SDS011;12318;51.262;7.066;2023-01-28T16:27:58;32.47;;;24.33;;
24161;SDS011;12318;51.262;7.066;2023-01-28T16:30:25;33.35;;;25.10;;
24161;SDS011;12318;51.262;7.066;2023-01-28T16:32:53;29.90;;;24.60;;
24161;SDS011;12318;51.262;7.066;2023-01-28T16:35:26;30.73;;;24.17;;
24161;SDS011;12318;51.262;7.066;2023-01-28T16:37:53;34.15;;;25.27;;
24161;SDS011;12318;51.262;7.066;2023-01-28T16:40:22;26.35;;;21.65;;
24161;SDS011;12318;51.262;7.066;2023-01-28T16:42:49;34.50;;;26.37;;
24161;SDS011;12318;51.262;7.066;2023-01-28T16:45:19;30.05;;;23.77;;
24161;SDS011;12318;51.262;7.066;2023-01-28T16:47:47;30.15;;;23.88;;
24161;SDS011;12318;51.262;7.066;2023-01-28T16:50:13;28.33;;;22.55;;
24161;SDS011;12318;51.262;7.066;2023-01-28T16:52:43;24.33;;;20.65;;
24161;SDS011;12318;51.262;7.066;2023-01-28T16:55:12;25.00;;;20.38;;
24161;SDS011;12318;51.262;7.066;2023-01-28T16:57:39;24.17;;;20.25;;
24161;SDS011;12318;51.262;7.066;2023-01-28T17:00:20;27.92;;;22.00;;
24161;SDS011;12318;51.262;7.066;2023-01-28T17:02:48;29.60;;;22.67;;
24161;SDS011;12318;51.262;7.066;2023-01-28T17:05:14;30.98;;;24.42;;
24161;SDS011;12318;51.262;7.066;2023-01-28T17:07:40;38.97;;;27.52;;
24161;SDS011;12318;51.262;7.066;2023-01-28T17:10:07;35.60;;;26.88;;
24161;SDS011;12318;51.262;7.066;2023-01-28T17:12:33;34.28;;;26.58;;
24161;SDS011;12318;51.262;7.066;2023-01-28T17:14:59;38.55;;;26.83;;
24161;SDS011;12318;51.262;7.066;2023-01-28T17:17:25;35.40;;;26.02;;
24161;SDS011;12318;51.262;7.066;2023-01-28T17:19:51;63.38;;;47.55;;